Météo Nord-Pas-de-Calais   La météo au plus près de chez vous

Station météorologique

Observations météo à Lezignan-Corbieres (11203)

11203004 60 m Dernier relevé à 10:06
26.3°C
Humidité 48 % Vent 6.1 km/h 1019.7 hPa

Journée consultée

Vendredi 4 Septembre 2026

Synthèse de la journée

Périodes de référence en UTC

Température maximale

26.3°C

à 10:06

06h 06h

Température minimale

18.6°C

à 06:18

18h 18h

Rafale maximale

20 km/h

à 07:18

00h 00h

Précipitations

0 mm

Cumul quotidien

06h 06h

Graphiques de la journée

Heure locale Réduire

Données détaillées

Relevés météo

Pas de 6 minutes Afficher les relevés infra-horaires
Relevés météo détaillés à Lezignan-Corbieres pour le Vendredi 4 Septembre 2026
Heure Température °C Point de rosée °C Humidité % Vent moyen (raf.), km/h Précipitations mm Pression hPa
10:06 26.3 °C 12 °C 41 % 14 km/h (19 km/h) 0 mm0 mm 1019.5 hPa
10:00 26.2 °C 11.5 °C 40 % 15 km/h (19 km/h) 0 mm0 mm 1019.5 hPa
09:54 26.1 °C 11.8 °C 41 % 15 km/h (18 km/h) 0 mm0 mm 1019.5 hPa
09:48 26 °C 11.4 °C 40 % 14 km/h (17 km/h) 0 mm0 mm 1019.6 hPa
09:42 25.8 °C 11.5 °C 41 % 13 km/h (18 km/h) 0 mm0 mm 1019.5 hPa
09:36 25.4 °C 11.9 °C 43 % 11 km/h (18 km/h) 0 mm0 mm 1019.6 hPa
09:30 24.9 °C 12.1 °C 45 % 10 km/h (14 km/h) 0 mm0 mm 1019.6 hPa
09:24 24.3 °C 11.9 °C 46 % 11 km/h (15 km/h) 0 mm0 mm 1019.8 hPa
09:18 24.1 °C 11.8 °C 46 % 10 km/h (15 km/h) 0 mm0 mm 1019.8 hPa
09:12 23.8 °C 12.1 °C 48 % 7 km/h (14 km/h) 0 mm0 mm 1019.7 hPa
09:06 23.4 °C 11.8 °C 48 % 6 km/h (12 km/h) 0 mm0 mm 1019.7 hPa
09:00 22.9 °C 11.3 °C 48 % 6 km/h (12 km/h) 0 mm0 mm 1019.7 hPa
08:54 22.4 °C 11.2 °C 49 % 7 km/h (9 km/h) 0 mm0 mm 1019.9 hPa
08:48 22 °C 10.8 °C 49 % 6 km/h (8 km/h) 0 mm0 mm 1019.8 hPa
08:42 21.7 °C 10.8 °C 50 % 6 km/h (8 km/h) 0 mm0 mm 1019.8 hPa
08:36 21.4 °C 10.5 °C 50 % 4 km/h (7 km/h) 0 mm0 mm 1019.7 hPa
08:30 21 °C 10.5 °C 51 % 4 km/h (8 km/h) 0 mm0 mm 1019.8 hPa
08:24 20.7 °C 10.5 °C 52 % 6 km/h (8 km/h) 0 mm0 mm 1019.8 hPa
08:18 20.4 °C 9.9 °C 51 % 6 km/h (9 km/h) 0 mm0 mm 1019.9 hPa
08:12 20.6 °C 10.1 °C 51 % 8 km/h (13 km/h) 0 mm0 mm 1019.7 hPa
08:06 20.8 °C 10.9 °C 53 % 10 km/h (14 km/h) 0 mm0 mm 1019.7 hPa
08:00 20.6 °C 11 °C 54 % 11 km/h (15 km/h) 0 mm0 mm 1019.6 hPa
07:54 20.5 °C 10.9 °C 54 % 12 km/h (15 km/h) 0 mm0 mm 1019.5 hPa
07:48 20.3 °C 10.7 °C 54 % 11 km/h (15 km/h) 0 mm0 mm 1019.6 hPa
07:42 20.1 °C 10.8 °C 55 % 10 km/h (14 km/h) 0 mm0 mm 1019.6 hPa
07:36 19.9 °C 10.6 °C 55 % 10 km/h (15 km/h) 0 mm0 mm 1019.6 hPa
07:30 19.8 °C 10.8 °C 56 % 13 km/h (17 km/h) 0 mm0 mm 1019.6 hPa
07:24 19.8 °C 10.8 °C 56 % 15 km/h (20 km/h) 0 mm0 mm 1019.6 hPa
07:18 19.8 °C 11 °C 57 % 15 km/h (20 km/h) 0 mm0 mm 1019.6 hPa
07:12 19.6 °C 10.8 °C 57 % 13 km/h (17 km/h) 0 mm0 mm 1019.6 hPa
07:06 19.6 °C 10.8 °C 57 % 11 km/h (17 km/h) 0 mm0 mm 1019.6 hPa
07:00 19.4 °C 10.9 °C 58 % 10 km/h (17 km/h) 0 mm0 mm 1019.5 hPa
06:54 19 °C 10.8 °C 59 % 9 km/h (13 km/h) 0 mm0 mm 1019.4 hPa
06:48 18.7 °C 10.5 °C 59 % 9 km/h (12 km/h) 0 mm0 mm 1019.4 hPa
06:42 18.7 °C 10.8 °C 60 % 10 km/h (12 km/h) 0 mm0 mm 1019.4 hPa
06:36 18.9 °C 10.7 °C 59 % 9 km/h (12 km/h) 0 mm0 mm 1019.3 hPa
06:30 18.7 °C 10.8 °C 60 % 8 km/h (12 km/h) 0 mm0 mm 1019.3 hPa
06:24 18.6 °C 10.4 °C 59 % 7 km/h (9 km/h) 0 mm0 mm 1019.4 hPa
06:18 18.6 °C 10.4 °C 59 % 9 km/h (12 km/h) 0 mm0 mm 1019.4 hPa
06:12 18.8 °C 10.6 °C 59 % 11 km/h (13 km/h) 0 mm0 mm 1019.5 hPa
06:06 19.4 °C 10.7 °C 57 % 9 km/h (13 km/h) 0 mm0 mm 1019.4 hPa
06:00 19.6 °C 10.3 °C 55 % 7 km/h (10 km/h) 0 mm0 mm 1019.4 hPa
05:54 19.7 °C 10.4 °C 55 % 7 km/h (10 km/h) 0 mm0 mm 1019.4 hPa
05:48 19.9 °C 10.3 °C 54 % 7 km/h (9 km/h) 0 mm0 mm 1019.4 hPa
05:42 19.9 °C 10.3 °C 54 % 7 km/h (9 km/h) 0 mm0 mm 1019.5 hPa
05:36 19.9 °C 10.3 °C 54 % 6 km/h (11 km/h) 0 mm0 mm 1019.5 hPa
05:30 20.2 °C 10.3 °C 53 % 8 km/h (15 km/h) 0 mm0 mm 1019.5 hPa
05:24 20.4 °C 10.5 °C 53 % 9 km/h (13 km/h) 0 mm0 mm 1019.4 hPa
05:18 20.8 °C 10.6 °C 52 % 10 km/h (14 km/h) 0 mm0 mm 1019.3 hPa
05:12 20.8 °C 10.6 °C 52 % 10 km/h (14 km/h) 0 mm0 mm 1019.4 hPa
05:06 21 °C 10.8 °C 52 % 12 km/h (15 km/h) 0 mm0 mm 1019.5 hPa
05:00 21 °C 10.8 °C 52 % 12 km/h (15 km/h) 0 mm0 mm 1019.5 hPa
04:54 20.7 °C 10.8 °C 53 % 12 km/h (14 km/h) 0 mm0 mm 1019.5 hPa
04:48 20.4 °C 10.8 °C 54 % 12 km/h (14 km/h) 0 mm0 mm 1019.6 hPa
04:42 20.2 °C 10.9 °C 55 % 11 km/h (14 km/h) 0 mm0 mm 1019.6 hPa
04:36 20.3 °C 11 °C 55 % 11 km/h (13 km/h) 0 mm0 mm 1019.6 hPa
04:30 20.5 °C 10.9 °C 54 % 12 km/h (15 km/h) 0 mm0 mm 1019.5 hPa
04:24 20.5 °C 10.9 °C 54 % 12 km/h (15 km/h) 0 mm0 mm 1019.6 hPa
04:18 21.1 °C 10.6 °C 51 % 11 km/h (13 km/h) 0 mm0 mm 1019.6 hPa
04:12 21.5 °C 10.6 °C 50 % 10 km/h (13 km/h) 0 mm0 mm 1019.7 hPa
04:06 21.5 °C 10.6 °C 50 % 12 km/h (13 km/h) 0 mm0 mm 1019.8 hPa
04:00 21.5 °C 10.6 °C 50 % 12 km/h (13 km/h) 0 mm0 mm 1019.8 hPa
03:54 21.6 °C 10.7 °C 50 % 11 km/h (13 km/h) 0 mm0 mm 1019.8 hPa
03:48 21.3 °C 10.7 °C 51 % 10 km/h (12 km/h) 0 mm0 mm 1019.9 hPa
03:42 20.9 °C 11 °C 53 % 10 km/h (12 km/h) 0 mm0 mm 1019.9 hPa
03:36 21.2 °C 10.7 °C 51 % 7 km/h (11 km/h) 0 mm0 mm 1019.9 hPa
03:30 22 °C 10.8 °C 49 % 5 km/h (8 km/h) 0 mm0 mm 1020 hPa
03:24 23 °C 10.4 °C 45 % 6 km/h (8 km/h) 0 mm0 mm 1019.9 hPa
03:18 23.2 °C 10.3 °C 44 % 4 km/h (6 km/h) 0 mm0 mm 1019.9 hPa
03:12 23.3 °C 10 °C 43 % 4 km/h (6 km/h) 0 mm0 mm 1020 hPa
03:06 23.5 °C 10.2 °C 43 % 4 km/h (6 km/h) 0 mm0 mm 1020 hPa
03:00 24.3 °C 9.8 °C 40 % 4 km/h (6 km/h) 0 mm0 mm 1020.1 hPa
02:54 24.9 °C 10 °C 39 % 3 km/h (6 km/h) 0 mm0 mm 1020.1 hPa
02:48 25 °C 10.1 °C 39 % 4 km/h (7 km/h) 0 mm0 mm 1020.1 hPa
02:42 25 °C 10.1 °C 39 % 6 km/h (9 km/h) 0 mm0 mm 1020.2 hPa
02:36 24.7 °C 9.8 °C 39 % 8 km/h (11 km/h) 0 mm0 mm 1020.3 hPa
02:30 24.1 °C 10.4 °C 42 % 8 km/h (12 km/h) 0 mm0 mm 1020.3 hPa
02:24 24.4 °C 10.3 °C 41 % 8 km/h (13 km/h) 0 mm0 mm 1020.4 hPa
02:18 25.4 °C 10.4 °C 39 % 9 km/h (13 km/h) 0 mm0 mm 1020.4 hPa
02:12 25.2 °C 10.3 °C 39 % 9 km/h (13 km/h) 0 mm0 mm 1020.4 hPa
02:06 25 °C 10.1 °C 39 % 9 km/h (13 km/h) 0 mm0 mm 1020.6 hPa
02:00 24.9 °C 10 °C 39 % 12 km/h (18 km/h) 0 mm0 mm 1020.5 hPa
01:54 25.3 °C 10 °C 38 % 13 km/h (18 km/h) 0 mm0 mm 1020.4 hPa
01:48 25.4 °C 10 °C 38 % 14 km/h (20 km/h) 0 mm0 mm 1020.4 hPa
01:42 25.7 °C 9.9 °C 37 % 15 km/h (23 km/h) 0 mm0 mm 1020.4 hPa
01:36 26 °C 9.8 °C 36 % 15 km/h (23 km/h) 0 mm0 mm 1020.5 hPa
01:30 26.2 °C 9.9 °C 36 % 14 km/h (21 km/h) 0 mm0 mm 1020.5 hPa
01:24 25.9 °C 10.1 °C 37 % 10 km/h (16 km/h) 0 mm0 mm 1020.6 hPa
01:18 25.7 °C 9.9 °C 37 % 10 km/h (19 km/h) 0 mm0 mm 1020.6 hPa
01:12 26.2 °C 9.9 °C 36 % 13 km/h (24 km/h) 0 mm0 mm 1020.6 hPa
01:06 26.2 °C 9.9 °C 36 % 14 km/h (24 km/h) 0 mm0 mm 1020.5 hPa
01:00 26.4 °C 9.7 °C 35 % 17 km/h (26 km/h) 0 mm0 mm 1020.5 hPa
00:54 25.7 °C 9.9 °C 37 % 10 km/h (18 km/h) 0 mm0 mm 1020.4 hPa
00:48 25.5 °C 9.7 °C 37 % 8 km/h (10 km/h) 0 mm0 mm 1020.5 hPa
00:42 25.8 °C 9.6 °C 36 % 7 km/h (10 km/h) 0 mm0 mm 1020.5 hPa
00:36 25.8 °C 9.6 °C 36 % 8 km/h (14 km/h) 0 mm0 mm 1020.5 hPa
00:30 25.7 °C 9.5 °C 36 % 9 km/h (14 km/h) 0 mm0 mm 1020.5 hPa
00:24 25.9 °C 9.7 °C 36 % 9 km/h (13 km/h) 0 mm0 mm 1020.6 hPa
00:18 26 °C 9.8 °C 36 % 9 km/h (15 km/h) 0 mm0 mm 1020.6 hPa
00:12 26.1 °C 9.4 °C 35 % 13 km/h (18 km/h) 0 mm0 mm 1020.6 hPa
00:06 26.2 °C 9.5 °C 35 % 16 km/h (21 km/h) 0 mm0 mm 1020.6 hPa
00:00 26.7 °C 9.5 °C 34 % 18 km/h (23 km/h) 0 mm0 mm 1020.5 hPa

Données via Météo-France

Relevés météo à Lezignan-Corbieres

Cette page rassemble les observations de la station de Lezignan-Corbieres : température, humidité, vent, précipitations et pression atmosphérique. Les graphiques facilitent le suivi de la journée, tandis que le tableau donne accès aux mesures horaires et infra-horaires disponibles.

Pour replacer ces mesures dans leur contexte, consultez la climatologie de Lezignan-Corbieres ainsi que ses normales et records. Retrouvez aussi la carte des observations météo en temps réel.